e-Mail: Password: Lost your password? Click here. - Register a new user

c h a v e z j u a r e z . c o m

Weather - Tiempo - Wetter - Temps

METAR DATA MMMX (Mexico City)

Mexico City / Licenci, Mexico (MMMX) 19-26N 099-06W
Jan 16, 2021 - 06:45 AM EST / 2021.01.16 1145 UTC
Wind: from the ENE (060 degrees) at 8 MPH (7 KT):0
Visibility: 10 mile(s):0
Sky conditions: partly cloudy
Temperature: 48 F (9 C)
Dew Point: 32 F (0 C)
Relative Humidity: 53%
Pressure (altimeter): 30.32 in. Hg (1026 hPa)
Pressure tendency: 0.02 inches (0.6 hPa) higher than three hours ago
ob: MMMX 161145Z 06007KT 10SM SCT100 SCT220 09/00 A3032 NOSIG RMK SLP135 52006 911 8/032
cycle: 12

Mexico City

St. Prex




Current weather alarms for Switzerland


www.wetteralarm.ch